Time;durP1;ratioP1;P1;durP2;ratioP2;P2;SDS_P1;SDS_P2;PMS_P1;PMS_P2;Temp;Humidity;BMP_temperature;BMP_pressure;BME280_temperature;BME280_humidity;BME280_pressure;Samples;Min_cycle;Max_cycle;Signal;HPM_P1;HPM_P2
2023/05/24 00:00:27;;;;;;;0.00;0.00;;;9.80;99.90;;;;;;7399268;19;19919;-75
2023/05/24 00:02:56;;;;;;;0.00;0.00;;;9.60;99.90;;;;;;7398618;19;20419;-75
2023/05/24 00:05:25;;;;;;;0.15;0.15;;;9.70;99.90;;;;;;7398054;19;19990;-74
2023/05/24 00:07:58;;;;;;;0.00;0.00;;;9.70;99.90;;;;;;7399638;19;19922;-75
2023/05/24 00:10:26;;;;;;;;;;;9.60;99.90;;;;;;7400891;19;19929;-75
2023/05/24 00:12:55;;;;;;;0.22;0.22;;;9.60;99.90;;;;;;7397525;19;19914;-75
2023/05/24 00:15:24;;;;;;;0.00;0.00;;;9.50;99.90;;;;;;7398216;19;19993;-75
2023/05/24 00:17:53;;;;;;;0.00;0.00;;;9.40;99.90;;;;;;7404097;19;19926;-75
2023/05/24 00:20:22;;;;;;;0.10;0.10;;;9.70;99.90;;;;;;7406074;19;19923;-75
2023/05/24 00:22:51;;;;;;;0.00;0.00;;;9.60;99.90;;;;;;7405017;19;19997;-75
2023/05/24 00:25:22;;;;;;;0.00;0.00;;;9.60;99.90;;;;;;7404627;19;20260;-74
2023/05/24 00:27:51;;;;;;;0.00;0.00;;;9.40;99.90;;;;;;7401110;19;19926;-74
2023/05/24 00:30:20;;;;;;;0.00;0.00;;;9.50;99.90;;;;;;7403703;19;19929;-74
2023/05/24 00:32:50;;;;;;;0.03;0.03;;;9.40;99.90;;;;;;7403361;19;19918;-74
2023/05/24 00:35:19;;;;;;;0.13;0.13;;;9.20;99.90;;;;;;7401043;19;19931;-75
2023/05/24 00:37:48;;;;;;;0.10;0.10;;;9.40;99.90;;;;;;7403202;19;19925;-74
2023/05/24 00:40:17;;;;;;;0.00;0.00;;;9.40;99.90;;;;;;7403999;19;19937;-76
2023/05/24 00:42:48;;;;;;;0.00;0.00;;;9.30;99.90;;;;;;7404572;19;19998;-74
2023/05/24 00:45:17;;;;;;;0.00;0.00;;;9.10;99.90;;;;;;7401812;19;20376;-75
2023/05/24 00:47:47;;;;;;;0.00;0.00;;;9.30;99.90;;;;;;7405839;19;20332;-75
2023/05/24 00:50:16;;;;;;;0.35;0.35;;;9.40;99.90;;;;;;7405802;19;19968;-74
2023/05/24 00:52:45;;;;;;;0.57;0.57;;;9.30;99.90;;;;;;7403332;19;19930;-75
2023/05/24 00:55:14;;;;;;;0.30;0.30;;;9.80;99.90;;;;;;7403481;19;19949;-76
2023/05/24 00:57:44;;;;;;;0.52;0.52;;;9.20;99.90;;;;;;7403126;19;19919;-75
2023/05/24 01:00:16;;;;;;;0.00;0.00;;;9.40;99.90;;;;;;7402822;19;19925;-75
2023/05/24 01:02:47;;;;;;;0.00;0.00;;;9.20;99.90;;;;;;7403941;19;19926;-75
2023/05/24 01:05:16;;;;;;;0.00;0.00;;;9.30;99.90;;;;;;7404631;19;19922;-75
2023/05/24 01:07:56;;;;;;;0.00;0.00;;;9.20;99.90;;;;;;7405215;19;20304;-75
2023/05/24 01:10:36;;;;;;;3.42;0.95;;;9.30;99.90;;;;;;7404814;19;19914;-75
2023/05/24 01:13:18;;;;;;;0.00;0.00;;;9.40;99.90;;;;;;7404371;19;20532;-75
2023/05/24 01:15:57;;;;;;;0.00;0.00;;;9.30;99.90;;;;;;7402608;19;20249;-75
2023/05/24 01:18:32;;;;;;;0.00;0.00;;;9.60;99.90;;;;;;7403777;19;19981;-74
2023/05/24 01:21:15;;;;;;;0.00;0.00;;;9.60;99.90;;;;;;7402626;19;19986;-76
2023/05/24 01:23:51;;;;;;;0.10;0.10;;;9.60;99.90;;;;;;7403542;19;19942;-75
2023/05/24 01:26:22;;;;;;;0.10;0.10;;;9.40;99.90;;;;;;7403394;19;19982;-75
2023/05/24 01:28:55;;;;;;;0.00;0.00;;;9.50;99.90;;;;;;7401943;19;19929;-75
2023/05/24 01:31:24;;;;;;;0.00;0.00;;;9.50;99.90;;;;;;7402635;19;19922;-75
2023/05/24 01:33:54;;;;;;;0.00;0.00;;;9.50;99.90;;;;;;7401861;19;20244;-75
2023/05/24 01:36:23;;;;;;;0.00;0.00;;;9.50;99.90;;;;;;7401043;19;19918;-74
2023/05/24 01:38:53;;;;;;;0.30;0.30;;;9.70;99.90;;;;;;7402190;19;19914;-75
2023/05/24 01:41:37;;;;;;;3.42;1.48;;;9.70;99.90;;;;;;7402183;19;20511;-75
2023/05/24 01:44:15;;;;;;;0.00;0.00;;;9.50;99.90;;;;;;7400891;19;20366;-77
2023/05/24 01:46:44;;;;;;;;;;;9.50;99.90;;;;;;7405659;19;20320;-75
2023/05/24 01:49:23;;;;;;;0.10;0.10;;;9.40;99.90;;;;;;7402179;19;20282;-75
2023/05/24 01:51:56;;;;;;;0.00;0.00;;;9.60;99.90;;;;;;7401158;19;19927;-75
2023/05/24 01:54:27;;;;;;;0.10;0.10;;;9.40;99.90;;;;;;7402693;19;19922;-75
2023/05/24 01:56:59;;;;;;;8.88;0.47;;;9.60;99.90;;;;;;7402349;19;20336;-75
2023/05/24 01:59:33;;;;;;;0.00;0.00;;;9.50;99.90;;;;;;7401909;19;20409;-75
2023/05/24 02:02:02;;;;;;;0.00;0.00;;;9.50;99.90;;;;;;7402260;19;19966;-75
2023/05/24 02:04:31;;;;;;;0.00;0.00;;;9.50;99.90;;;;;;7401365;19;19926;-75
2023/05/24 02:07:00;;;;;;;0.00;0.00;;;9.40;99.90;;;;;;7403642;19;19922;-75
2023/05/24 02:09:29;;;;;;;0.00;0.00;;;9.50;99.90;;;;;;7402990;19;19923;-75
2023/05/24 02:11:58;;;;;;;0.00;0.00;;;9.40;99.90;;;;;;7401099;19;19930;-75
2023/05/24 02:14:30;;;;;;;2.10;0.63;;;9.40;99.90;;;;;;7400313;19;20391;-75
2023/05/24 02:17:01;;;;;;;0.00;0.00;;;9.40;99.90;;;;;;7402425;19;20030;-75
2023/05/24 02:19:30;;;;;;;0.00;0.00;;;9.40;99.90;;;;;;7400156;19;19923;-76
2023/05/24 02:21:59;;;;;;;0.52;0.52;;;9.50;99.90;;;;;;7400878;19;20486;-76
2023/05/24 02:24:28;;;;;;;0.00;0.00;;;9.30;99.90;;;;;;7399941;19;19929;-76
2023/05/24 02:26:57;;;;;;;0.00;0.00;;;9.60;99.90;;;;;;7396922;19;19936;-76
2023/05/24 02:29:26;;;;;;;0.00;0.00;;;9.40;99.90;;;;;;7400386;19;19927;-76
2023/05/24 02:31:57;;;;;;;0.00;0.00;;;9.40;99.90;;;;;;7396842;19;19982;-76
2023/05/24 02:34:27;;;;;;;0.28;0.28;;;9.50;99.90;;;;;;7399776;19;19915;-76
2023/05/24 02:36:56;;;;;;;0.00;0.00;;;9.40;99.90;;;;;;7398481;19;20086;-76
2023/05/24 02:39:25;;;;;;;0.00;0.00;;;9.30;99.90;;;;;;7399835;19;20354;-74
2023/05/24 02:41:54;;;;;;;0.10;0.10;;;9.30;99.90;;;;;;7398176;19;20293;-74
2023/05/24 02:44:23;;;;;;;0.00;0.00;;;9.40;99.90;;;;;;7395155;19;19954;-74
2023/05/24 02:46:52;;;;;;;0.00;0.00;;;9.20;99.90;;;;;;7400888;19;19930;-74
2023/05/24 02:49:23;;;;;;;0.00;0.00;;;9.20;99.90;;;;;;7397438;19;19922;-74
2023/05/24 02:51:53;;;;;;;0.10;0.10;;;9.30;99.90;;;;;;7396416;19;20387;-74
2023/05/24 02:54:22;;;;;;;0.00;0.00;;;9.20;99.90;;;;;;7398371;19;19922;-74
2023/05/24 02:56:51;;;;;;;0.00;0.00;;;10.10;99.90;;;;;;7393829;19;19922;-75
2023/05/24 02:59:20;;;;;;;0.08;0.08;;;9.20;99.90;;;;;;7399371;19;19922;-75
2023/05/24 03:01:49;;;;;;;0.00;0.00;;;9.20;99.90;;;;;;7398046;19;19928;-74
2023/05/24 03:04:18;;;;;;;0.00;0.00;;;9.20;99.90;;;;;;7397669;19;19997;-74
2023/05/24 03:06:50;;;;;;;0.00;0.00;;;9.50;99.90;;;;;;7399261;19;19922;-74
2023/05/24 03:09:20;;;;;;;0.00;0.00;;;9.40;99.90;;;;;;7398962;19;19918;-74
2023/05/24 03:11:49;;;;;;;0.00;0.00;;;9.40;99.90;;;;;;7400588;19;19923;-74
2023/05/24 03:14:19;;;;;;;1.65;0.30;;;9.30;99.90;;;;;;7399952;19;19986;-74
2023/05/24 03:16:48;;;;;;;0.00;0.00;;;9.30;99.90;;;;;;7398232;19;19990;-74
2023/05/24 03:19:17;;;;;;;0.00;0.00;;;8.60;99.90;;;;;;7399198;19;19942;-74
2023/05/24 03:21:49;;;;;;;0.00;0.00;;;9.20;99.90;;;;;;7398330;19;19923;-75
2023/05/24 03:24:18;;;;;;;0.00;0.00;;;9.30;99.90;;;;;;7401737;19;20253;-74
2023/05/24 03:26:47;;;;;;;0.00;0.00;;;9.30;99.90;;;;;;7400118;19;20336;-74
2023/05/24 03:29:16;;;;;;;0.00;0.00;;;9.30;99.90;;;;;;7397053;19;19943;-74
2023/05/24 03:31:45;;;;;;;0.45;0.45;;;9.40;99.90;;;;;;7400095;19;19934;-74
2023/05/24 03:34:14;;;;;;;0.00;0.00;;;9.50;99.90;;;;;;7399207;19;19919;-75
2023/05/24 03:36:44;;;;;;;0.00;0.00;;;9.40;99.90;;;;;;7393951;19;19926;-75
2023/05/24 03:39:15;;;;;;;0.00;0.00;;;9.30;99.90;;;;;;7396499;19;19922;-75
2023/05/24 03:41:44;;;;;;;0.00;0.00;;;9.30;99.90;;;;;;7400281;19;19923;-74
2023/05/24 03:44:14;;;;;;;0.00;0.00;;;9.40;99.90;;;;;;7399851;19;19926;-75
2023/05/24 03:46:43;;;;;;;0.63;0.60;;;9.30;99.90;;;;;;7398921;19;20007;-74
2023/05/24 03:49:12;;;;;;;0.00;0.00;;;9.40;99.90;;;;;;7399099;19;20351;-75
2023/05/24 03:51:41;;;;;;;0.00;0.00;;;9.40;99.90;;;;;;7402045;19;20374;-74
2023/05/24 03:54:10;;;;;;;0.00;0.00;;;9.40;99.90;;;;;;7403059;19;20394;-74
2023/05/24 03:56:41;;;;;;;0.17;0.17;;;9.30;99.90;;;;;;7404931;19;20006;-75
2023/05/24 03:59:10;;;;;;;0.93;0.93;;;9.40;99.90;;;;;;7405231;19;20336;-74
2023/05/24 04:01:40;;;;;;;0.10;0.10;;;9.30;99.90;;;;;;7406339;19;20349;-74
2023/05/24 04:04:09;;;;;;;0.00;0.00;;;9.30;99.90;;;;;;7405701;19;19929;-75
2023/05/24 04:06:40;;;;;;;0.00;0.00;;;9.40;99.90;;;;;;7406822;19;20359;-74
2023/05/24 04:09:09;;;;;;;0.00;0.00;;;9.40;99.90;;;;;;7406128;19;19928;-74
2023/05/24 04:11:41;;;;;;;0.68;0.68;;;9.60;99.90;;;;;;7407425;19;19932;-74
2023/05/24 04:14:10;;;;;;;0.00;0.00;;;9.40;99.90;;;;;;7403385;19;19929;-77
2023/05/24 04:16:40;;;;;;;0.00;0.00;;;9.40;99.90;;;;;;7404443;19;19950;-75
2023/05/24 04:19:09;;;;;;;0.00;0.00;;;9.50;99.90;;;;;;7405923;19;19922;-74
2023/05/24 04:21:39;;;;;;;0.00;0.00;;;9.40;99.90;;;;;;7404462;19;19922;-74
2023/05/24 04:24:08;;;;;;;0.00;0.00;;;9.50;99.90;;;;;;7405208;19;20372;-74
2023/05/24 04:26:37;;;;;;;0.00;0.00;;;9.40;99.90;;;;;;7403112;19;20313;-75
2023/05/24 04:29:09;;;;;;;0.75;0.45;;;9.50;99.90;;;;;;7405444;19;19923;-74
2023/05/24 04:31:38;;;;;;;0.00;0.00;;;9.50;99.90;;;;;;7407101;19;19918;-74
2023/05/24 04:34:08;;;;;;;0.00;0.00;;;9.50;99.90;;;;;;7402243;19;19950;-75
2023/05/24 04:36:37;;;;;;;0.60;0.60;;;9.50;99.90;;;;;;7402081;19;19928;-75
2023/05/24 04:39:07;;;;;;;1.55;1.45;;;9.50;99.90;;;;;;7406524;19;19928;-75
2023/05/24 04:41:37;;;;;;;1.85;1.75;;;9.40;99.90;;;;;;7401780;19;20357;-74
2023/05/24 04:44:09;;;;;;;1.98;0.65;;;9.50;99.90;;;;;;7400682;19;19918;-74
2023/05/24 04:46:38;;;;;;;0.00;0.00;;;9.50;99.90;;;;;;7401989;19;19931;-75
2023/05/24 04:49:07;;;;;;;0.00;0.00;;;9.50;99.90;;;;;;7403572;19;20455;-75
2023/05/24 04:51:37;;;;;;;0.00;0.00;;;9.70;99.90;;;;;;7401086;19;19926;-75
2023/05/24 04:54:07;;;;;;;0.00;0.00;;;9.70;99.90;;;;;;7400836;19;19918;-74
2023/05/24 04:56:37;;;;;;;0.00;0.00;;;9.70;99.90;;;;;;7401787;19;19919;-75
2023/05/24 04:59:09;;;;;;;0.13;0.13;;;9.80;99.90;;;;;;7402568;19;19985;-75
2023/05/24 05:01:38;;;;;;;0.00;0.00;;;9.90;99.90;;;;;;7402163;19;20344;-74
2023/05/24 05:04:07;;;;;;;0.00;0.00;;;10.00;99.90;;;;;;7402753;19;19926;-75
2023/05/24 05:06:38;;;;;;;0.00;0.00;;;9.90;99.90;;;;;;7405585;19;19926;-75
2023/05/24 05:09:09;;;;;;;0.65;0.65;;;10.00;99.90;;;;;;7403300;19;19926;-75
2023/05/24 05:11:38;;;;;;;5.72;0.75;;;10.10;99.90;;;;;;7402462;19;19929;-74
2023/05/24 05:14:12;;;;;;;0.00;0.00;;;10.10;99.90;;;;;;7404691;19;20267;-74
2023/05/24 05:16:40;;;;;;;;;;;10.10;99.90;;;;;;7404412;19;19935;-74
2023/05/24 05:19:09;;;;;;;0.00;0.00;;;9.90;99.90;;;;;;7400563;19;19922;-75
2023/05/24 05:21:38;;;;;;;0.00;0.00;;;10.20;99.90;;;;;;7402396;19;19933;-75
2023/05/24 05:24:07;;;;;;;0.00;0.00;;;10.10;99.90;;;;;;7404188;19;19974;-74
2023/05/24 05:26:36;;;;;;;2.50;1.48;;;10.10;99.90;;;;;;7403301;19;19942;-74
2023/05/24 05:29:05;;;;;;;0.32;0.32;;;10.10;99.90;;;;;;7403216;19;19926;-75
2023/05/24 05:31:38;;;;;;;0.63;0.63;;;10.00;99.90;;;;;;7404126;19;19932;-76
2023/05/24 05:34:08;;;;;;;0.00;0.00;;;10.00;99.90;;;;;;7400866;19;19923;-75
2023/05/24 05:36:39;;;;;;;1.88;1.77;;;9.90;99.90;;;;;;7402222;19;19926;-74
2023/05/24 05:39:11;;;;;;;0.00;0.00;;;10.10;99.90;;;;;;7401152;19;19923;-75
2023/05/24 05:41:44;;;;;;;0.00;0.00;;;10.20;99.90;;;;;;7403967;19;20544;-75
2023/05/24 05:44:13;;;;;;;0.00;0.00;;;10.30;99.90;;;;;;7403399;19;19926;-75
2023/05/24 05:46:45;;;;;;;0.08;0.08;;;10.20;99.90;;;;;;7403224;19;19972;-77
2023/05/24 05:49:14;;;;;;;0.00;0.00;;;10.20;99.90;;;;;;7403476;19;19926;-75
2023/05/24 05:51:43;;;;;;;0.00;0.00;;;10.20;99.90;;;;;;7402250;19;19919;-75
2023/05/24 05:54:14;;;;;;;0.00;0.00;;;10.30;99.90;;;;;;7402418;19;20251;-75
2023/05/24 05:56:44;;;;;;;1.17;1.08;;;10.30;99.90;;;;;;7397526;19;19918;-75
2023/05/24 05:59:14;;;;;;;0.00;0.00;;;10.20;99.90;;;;;;7398640;19;19932;-75
2023/05/24 06:01:47;;;;;;;0.10;0.10;;;10.30;99.90;;;;;;7402255;19;19926;-75
2023/05/24 06:04:17;;;;;;;0.00;0.00;;;10.60;99.90;;;;;;7402062;19;20033;-75
2023/05/24 06:06:48;;;;;;;1.55;1.00;;;10.70;99.90;;;;;;7403635;19;19914;-75
2023/05/24 06:09:17;;;;;;;0.00;0.00;;;10.50;99.90;;;;;;7398148;19;19919;-76
2023/05/24 06:11:46;;;;;;;0.43;0.43;;;10.50;99.90;;;;;;7396692;19;20412;-78
2023/05/24 06:14:18;;;;;;;0.00;0.00;;;10.50;99.90;;;;;;7403538;19;19966;-76
2023/05/24 06:16:53;;;;;;;0.15;0.15;;;10.60;99.90;;;;;;7402734;19;19922;-77
2023/05/24 06:19:22;;;;;;;0.10;0.10;;;10.60;99.90;;;;;;7399650;19;20277;-77
2023/05/24 06:21:51;;;;;;;0.00;0.00;;;10.90;99.90;;;;;;7401482;19;19926;-76
2023/05/24 06:24:21;;;;;;;0.00;0.00;;;10.60;99.90;;;;;;7395437;19;19930;-77
2023/05/24 06:26:51;;;;;;;0.00;0.00;;;10.70;99.90;;;;;;7402933;19;20002;-77
2023/05/24 06:29:21;;;;;;;0.00;0.00;;;10.70;99.90;;;;;;7402482;19;20347;-77
2023/05/24 06:31:53;;;;;;;0.08;0.08;;;10.90;99.90;;;;;;7398168;19;19919;-77
2023/05/24 06:34:22;;;;;;;0.00;0.00;;;10.70;99.90;;;;;;7401146;19;19918;-77
2023/05/24 06:36:52;;;;;;;0.00;0.00;;;10.80;99.90;;;;;;7401204;19;19922;-77
2023/05/24 06:39:23;;;;;;;0.00;0.00;;;10.90;99.90;;;;;;7401058;19;19928;-78
2023/05/24 06:41:53;;;;;;;0.00;0.00;;;10.80;99.90;;;;;;7400034;19;20267;-77
2023/05/24 06:44:22;;;;;;;0.00;0.00;;;10.90;99.90;;;;;;7402977;19;19947;-76
2023/05/24 06:46:53;;;;;;;0.00;0.00;;;11.10;99.90;;;;;;7402882;19;19926;-78
2023/05/24 06:49:22;;;;;;;0.00;0.00;;;11.20;99.90;;;;;;7401826;19;19918;-76
2023/05/24 06:51:51;;;;;;;0.90;0.55;;;11.10;99.90;;;;;;7401545;19;19930;-76
2023/05/24 06:54:20;;;;;;;0.00;0.00;;;11.10;99.90;;;;;;7399970;19;19954;-76
2023/05/24 06:56:50;;;;;;;0.00;0.00;;;11.20;99.90;;;;;;7399820;19;19965;-76
2023/05/24 06:59:19;;;;;;;0.32;0.32;;;11.30;99.90;;;;;;7401253;19;19925;-78
2023/05/24 07:01:50;;;;;;;0.00;0.00;;;11.20;99.90;;;;;;7399906;19;19922;-76
2023/05/24 07:04:21;;;;;;;0.00;0.00;;;11.20;99.90;;;;;;7398594;19;20410;-76
2023/05/24 07:06:50;;;;;;;0.00;0.00;;;11.40;99.90;;;;;;7401588;19;19919;-77
2023/05/24 07:09:23;;;;;;;0.00;0.00;;;11.60;99.90;;;;;;7401677;19;19923;-76
2023/05/24 07:12:03;;;;;;;0.00;0.00;;;11.40;99.90;;;;;;7400564;19;19926;-79
2023/05/24 07:14:52;;;;;;;0.10;0.10;;;11.60;99.90;;;;;;7401575;19;19930;-76
2023/05/24 07:17:21;;;;;;;0.00;0.00;;;11.50;99.90;;;;;;7399679;19;19941;-77
2023/05/24 07:19:52;;;;;;;0.00;0.00;;;11.60;99.90;;;;;;7400575;19;20345;-77
2023/05/24 07:22:23;;;;;;;0.00;0.00;;;11.50;99.90;;;;;;7399316;19;19926;-77
2023/05/24 07:24:52;;;;;;;0.03;0.03;;;11.60;99.90;;;;;;7399171;19;19928;-77
2023/05/24 07:27:21;;;;;;;0.05;0.05;;;11.70;99.90;;;;;;7399674;19;19931;-77
2023/05/24 07:29:50;;;;;;;0.00;0.00;;;11.60;99.90;;;;;;7398798;19;19922;-75
2023/05/24 07:32:19;;;;;;;0.22;0.22;;;11.60;99.90;;;;;;7400222;19;20010;-77
2023/05/24 07:34:49;;;;;;;0.00;0.00;;;11.60;99.90;;;;;;7394889;19;19943;-77
2023/05/24 07:37:22;;;;;;;0.00;0.00;;;11.60;99.90;;;;;;7400316;19;19914;-77
2023/05/24 07:39:52;;;;;;;0.00;0.00;;;11.50;99.90;;;;;;7401687;19;19935;-77
2023/05/24 07:42:21;;;;;;;0.00;0.00;;;11.50;99.90;;;;;;7400350;19;19932;-77
2023/05/24 07:44:50;;;;;;;0.00;0.00;;;11.60;99.90;;;;;;7398085;19;19926;-77
2023/05/24 07:47:20;;;;;;;0.00;0.00;;;11.60;99.90;;;;;;7399589;19;19939;-77
2023/05/24 07:49:49;;;;;;;0.32;0.32;;;11.80;99.90;;;;;;7401305;19;20005;-77
2023/05/24 07:52:22;;;;;;;0.00;0.00;;;11.90;99.90;;;;;;7399863;19;20372;-77
2023/05/24 07:54:51;;;;;;;0.00;0.00;;;12.10;99.90;;;;;;7399068;19;19922;-77
2023/05/24 07:57:20;;;;;;;0.15;0.15;;;12.20;99.90;;;;;;7398637;19;19918;-77
2023/05/24 07:59:49;;;;;;;0.00;0.00;;;12.30;99.90;;;;;;7398453;19;19955;-78
2023/05/24 08:02:19;;;;;;;0.00;0.00;;;12.30;99.90;;;;;;7399198;19;19939;-78
2023/05/24 08:04:48;;;;;;;0.00;0.00;;;12.40;99.90;;;;;;7399544;19;19922;-77
2023/05/24 08:07:17;;;;;;;0.30;0.30;;;12.10;99.90;;;;;;7399373;19;19930;-77
2023/05/24 08:09:49;;;;;;;0.00;0.00;;;12.20;99.90;;;;;;7400163;19;19946;-77
2023/05/24 08:12:18;;;;;;;1.25;1.17;;;12.30;99.90;;;;;;7398352;19;19974;-77
2023/05/24 08:14:51;;;;;;;0.43;0.10;;;12.40;99.90;;;;;;7399393;19;19914;-77
2023/05/24 08:17:20;;;;;;;0.75;0.45;;;12.50;99.90;;;;;;7399470;19;19930;-77
2023/05/24 08:19:57;;;;;;;0.00;0.00;;;12.70;99.90;;;;;;7398151;19;19932;-76
2023/05/24 08:22:26;;;;;;;0.30;0.30;;;12.80;99.90;;;;;;7398077;19;19966;-77
2023/05/24 08:24:57;;;;;;;0.00;0.00;;;12.90;99.90;;;;;;7399116;19;20370;-77
2023/05/24 08:27:27;;;;;;;0.10;0.10;;;12.90;99.90;;;;;;7398485;19;19943;-77
2023/05/24 08:29:56;;;;;;;0.00;0.00;;;12.80;99.90;;;;;;7398450;19;19918;-78
2023/05/24 08:32:25;;;;;;;0.00;0.00;;;12.70;99.90;;;;;;7398198;19;19922;-77
2023/05/24 08:34:55;;;;;;;0.00;0.00;;;12.70;99.90;;;;;;7399586;19;19922;-77
2023/05/24 08:37:24;;;;;;;0.60;0.60;;;12.70;99.90;;;;;;7397712;19;19922;-77
2023/05/24 08:39:56;;;;;;;0.25;0.25;;;12.80;99.90;;;;;;7402298;19;19911;-77
2023/05/24 08:42:26;;;;;;;0.00;0.00;;;12.70;99.90;;;;;;7405249;19;20642;-78
2023/05/24 08:45:10;;;;;;;0.00;0.00;;;12.70;99.90;;;;;;7405738;19;19986;-78
2023/05/24 08:47:39;;;;;;;0.00;0.00;;;12.80;99.90;;;;;;7406025;19;19928;-76
2023/05/24 08:50:09;;;;;;;0.00;0.00;;;12.60;99.90;;;;;;7404372;19;20388;-76
2023/05/24 08:52:39;;;;;;;0.00;0.00;;;12.60;99.90;;;;;;7404785;19;20717;-77
2023/05/24 08:55:13;;;;;;;0.00;0.00;;;12.60;99.90;;;;;;7404051;19;20257;-77
2023/05/24 08:57:43;;;;;;;0.00;0.00;;;12.60;99.90;;;;;;7403663;19;20351;-77
2023/05/24 09:00:13;;;;;;;0.00;0.00;;;12.70;99.90;;;;;;7405195;19;20364;-77
2023/05/24 09:02:44;;;;;;;0.00;0.00;;;12.80;99.90;;;;;;7404780;19;19954;-77
2023/05/24 09:05:15;;;;;;;0.20;0.20;;;13.00;99.90;;;;;;7404013;19;19930;-77
2023/05/24 09:07:46;;;;;;;0.65;0.65;;;13.00;99.90;;;;;;7404159;19;20284;-77
2023/05/24 09:10:21;;;;;;;0.00;0.00;;;13.00;99.90;;;;;;7401932;19;19934;-76
2023/05/24 09:12:53;;;;;;;0.00;0.00;;;13.10;99.90;;;;;;7403780;19;19985;-76
2023/05/24 09:15:22;;;;;;;0.10;0.10;;;13.10;99.90;;;;;;7405314;19;19982;-78
2023/05/24 09:17:51;;;;;;;0.45;0.43;;;13.10;99.90;;;;;;7403633;19;19977;-77
2023/05/24 09:20:22;;;;;;;0.00;0.00;;;13.10;99.90;;;;;;7402445;19;20408;-76
2023/05/24 09:22:53;;;;;;;0.00;0.00;;;13.10;99.90;;;;;;7402830;19;19922;-77
2023/05/24 09:25:27;;;;;;;0.45;0.45;;;13.10;99.90;;;;;;7403958;19;19926;-77
2023/05/24 09:27:56;;;;;;;0.00;0.00;;;13.00;99.90;;;;;;7402384;19;19958;-77
2023/05/24 09:30:25;;;;;;;0.00;0.00;;;13.00;99.90;;;;;;7403724;19;19926;-77
2023/05/24 09:32:58;;;;;;;0.30;0.30;;;13.10;99.90;;;;;;7402429;19;20397;-78
2023/05/24 09:35:28;;;;;;;0.00;0.00;;;13.00;99.90;;;;;;7402073;19;19915;-77
2023/05/24 09:37:58;;;;;;;0.20;0.20;;;13.00;99.90;;;;;;7402896;19;19922;-79
2023/05/24 09:40:31;;;;;;;0.00;0.00;;;13.10;99.90;;;;;;7402945;19;19932;-77
2023/05/24 09:43:08;;;;;;;0.00;0.00;;;13.00;99.90;;;;;;7402128;19;20390;-77
2023/05/24 09:45:45;;;;;;;0.00;0.00;;;13.30;99.90;;;;;;7403555;19;19931;-77
2023/05/24 09:48:16;;;;;;;13.95;0.40;;;13.50;99.90;;;;;;7402110;19;19923;-78
2023/05/24 09:50:46;;;;;;;0.00;0.00;;;13.30;99.90;;;;;;7397993;19;19928;-76
2023/05/24 09:53:18;;;;;;;1.10;0.70;;;13.40;99.90;;;;;;7401878;19;19994;-78
2023/05/24 09:55:50;;;;;;;0.00;0.00;;;13.40;99.90;;;;;;7405123;19;19922;-79
2023/05/24 09:58:19;;;;;;;0.00;0.00;;;13.40;99.90;;;;;;7404540;19;19943;-81
2023/05/24 10:00:49;;;;;;;0.00;0.00;;;13.70;99.90;;;;;;7406527;19;19918;-81
2023/05/24 10:03:21;;;;;;;0.00;0.00;;;13.50;99.90;;;;;;7408569;19;20336;-81
2023/05/24 10:05:53;;;;;;;0.00;0.00;;;13.60;99.90;;;;;;7413391;19;19922;-84
2023/05/24 10:08:23;;;;;;;0.20;0.20;;;13.60;99.90;;;;;;7400627;19;20355;-80
2023/05/24 10:10:57;;;;;;;0.17;0.17;;;13.70;99.90;;;;;;7399840;19;19940;-78
2023/05/24 10:13:26;;;;;;;0.00;0.00;;;13.90;99.90;;;;;;7402272;19;19978;-79
2023/05/24 10:15:55;;;;;;;0.13;0.10;;;13.90;99.90;;;;;;7399887;19;20040;-81
2023/05/24 10:18:25;;;;;;;0.43;0.30;;;13.90;99.90;;;;;;7401155;19;19966;-80
2023/05/24 10:21:15;;;;;;;11.45;0.57;;;14.00;99.90;;;;;;7400202;19;19923;-81
2023/05/24 10:23:46;;;;;;;0.05;0.05;;;14.10;99.90;;;;;;7402696;19;19943;-82
2023/05/24 10:26:19;;;;;;;0.00;0.00;;;13.90;99.90;;;;;;7403872;19;19938;-82
2023/05/24 10:28:53;;;;;;;0.00;0.00;;;14.00;99.90;;;;;;7400053;19;19914;-81
2023/05/24 10:31:26;;;;;;;0.00;0.00;;;14.20;99.90;;;;;;7401157;19;20450;-82
2023/05/24 10:33:59;;;;;;;0.00;0.00;;;14.30;99.90;;;;;;7400911;19;19918;-81
2023/05/24 10:36:29;;;;;;;0.00;0.00;;;14.50;99.90;;;;;;7401284;19;19943;-80
2023/05/24 10:38:58;;;;;;;0.10;0.10;;;14.60;99.90;;;;;;7401445;19;19946;-81
2023/05/24 10:41:47;;;;;;;0.00;0.00;;;14.60;99.90;;;;;;7400579;19;19928;-80
2023/05/24 10:44:21;;;;;;;0.00;0.00;;;14.80;99.90;;;;;;7401483;19;19929;-81
2023/05/24 10:47:11;;;;;;;0.00;0.00;;;15.00;99.90;;;;;;7400022;19;19922;-80
2023/05/24 10:49:50;;;;;;;0.22;0.22;;;14.90;99.90;;;;;;7400551;19;20344;-81
2023/05/24 10:52:19;;;;;;;0.00;0.00;;;14.90;99.90;;;;;;7396025;19;19956;-81
2023/05/24 10:55:04;;;;;;;0.00;0.00;;;15.00;99.90;;;;;;7399292;19;20257;-79
2023/05/24 10:57:36;;;;;;;0.00;0.00;;;13.10;99.90;;;;;;7401837;19;20718;-80
2023/05/24 11:00:20;;;;;;;;;;;15.20;99.90;;;;;;7404278;19;19933;-80
2023/05/24 11:02:51;;;;;;;2.08;1.98;;;15.20;99.90;;;;;;7399356;19;19936;-80
2023/05/24 11:05:20;;;;;;;0.35;0.35;;;15.00;99.90;;;;;;7397425;19;19927;-80
2023/05/24 11:07:50;;;;;;;0.22;0.22;;;15.00;99.90;;;;;;7397610;19;19923;-79
2023/05/24 11:10:31;;;;;;;0.43;0.20;;;14.80;99.90;;;;;;7398116;19;19922;-80
2023/05/24 11:13:03;;;;;;;0.75;0.47;;;15.10;99.90;;;;;;7398261;19;19974;-80
2023/05/24 11:15:32;;;;;;;0.00;0.00;;;15.00;99.90;;;;;;7400145;19;19996;-81
2023/05/24 11:18:25;;;;;;;0.35;0.25;;;15.00;99.90;;;;;;7400809;19;20311;-81
2023/05/24 11:20:55;;;;;;;0.10;0.10;;;15.10;99.90;;;;;;7394956;19;19915;-81
2023/05/24 11:23:24;;;;;;;0.00;0.00;;;15.20;99.90;;;;;;7399136;19;19926;-80
2023/05/24 11:25:54;;;;;;;0.00;0.00;;;15.20;99.90;;;;;;7398446;19;19925;-77
2023/05/24 11:28:26;;;;;;;0.10;0.10;;;15.40;99.90;;;;;;7397729;19;20483;-79
2023/05/24 11:30:56;;;;;;;0.68;0.68;;;15.30;99.90;;;;;;7392876;19;19919;-78
2023/05/24 11:33:26;;;;;;;4.45;1.27;;;15.40;99.90;;;;;;7396371;19;20463;-78
2023/05/24 11:35:56;;;;;;;0.00;0.00;;;15.30;99.90;;;;;;7400324;19;19927;-78
2023/05/24 11:38:26;;;;;;;0.00;0.00;;;15.30;99.90;;;;;;7401240;19;19979;-78
2023/05/24 11:40:55;;;;;;;0.00;0.00;;;15.10;99.90;;;;;;7399020;19;19922;-77
2023/05/24 11:43:28;;;;;;;0.32;0.32;;;15.30;99.90;;;;;;7398272;19;19978;-78
2023/05/24 11:45:58;;;;;;;0.00;0.00;;;15.40;99.90;;;;;;7399910;19;19922;-78
2023/05/24 11:48:28;;;;;;;0.00;0.00;;;15.60;99.90;;;;;;7399955;19;19922;-78
2023/05/24 11:50:58;;;;;;;0.08;0.08;;;16.00;99.90;;;;;;7398954;19;19914;-77
2023/05/24 11:53:28;;;;;;;0.20;0.20;;;16.10;99.90;;;;;;7396423;19;20263;-77
2023/05/24 11:55:57;;;;;;;0.22;0.22;;;16.50;99.90;;;;;;7400167;19;20793;-77
2023/05/24 11:58:36;;;;;;;0.52;0.47;;;16.70;99.90;;;;;;7398857;19;19923;-77
2023/05/24 12:01:06;;;;;;;0.00;0.00;;;16.80;99.90;;;;;;7400510;19;19927;-77
2023/05/24 12:03:35;;;;;;;0.00;0.00;;;16.70;99.90;;;;;;7399070;19;19931;-78
2023/05/24 12:06:04;;;;;;;0.00;0.00;;;17.00;99.90;;;;;;7398094;19;19939;-78
2023/05/24 12:08:34;;;;;;;0.00;0.00;;;16.70;99.90;;;;;;7400912;19;19922;-77
2023/05/24 12:11:14;;;;;;;0.10;0.10;;;16.80;99.90;;;;;;7397658;19;20352;-77
2023/05/24 12:13:46;;;;;;;0.00;0.00;;;16.90;99.90;;;;;;7404094;19;20363;-78
2023/05/24 12:16:16;;;;;;;1.48;1.45;;;16.80;99.90;;;;;;7406507;19;19989;-78
2023/05/24 12:18:46;;;;;;;0.00;0.00;;;16.60;99.90;;;;;;7401605;19;20400;-78
2023/05/24 12:21:15;;;;;;;0.00;0.00;;;16.50;99.90;;;;;;7405967;19;19992;-78
2023/05/24 12:23:45;;;;;;;0.00;0.00;;;16.30;99.90;;;;;;7405094;19;19922;-79
2023/05/24 12:26:15;;;;;;;0.00;0.00;;;16.50;99.90;;;;;;7399434;19;19926;-78
2023/05/24 12:28:49;;;;;;;0.25;0.25;;;16.40;99.90;;;;;;7402950;19;19925;-79
2023/05/24 12:31:18;;;;;;;2.70;0.70;;;16.50;99.90;;;;;;7402088;19;19923;-78
2023/05/24 12:33:48;;;;;;;3.40;0.98;;;16.50;99.90;;;;;;7404405;19;19915;-78
2023/05/24 12:36:18;;;;;;;0.00;0.00;;;16.30;99.90;;;;;;7404033;19;19981;-79
2023/05/24 12:38:47;;;;;;;0.63;0.22;;;16.30;99.90;;;;;;7401755;19;19998;-78
2023/05/24 12:41:18;;;;;;;1.40;0.52;;;16.30;99.90;;;;;;7400633;19;19918;-79
2023/05/24 12:43:54;;;;;;;0.00;0.00;;;16.10;99.90;;;;;;7403062;19;20621;-79
2023/05/24 12:46:23;;;;;;;0.10;0.10;;;16.30;99.90;;;;;;7398384;19;20021;-80
2023/05/24 12:48:52;;;;;;;0.00;0.00;;;16.10;99.90;;;;;;7401481;19;19923;-79
2023/05/24 12:51:21;;;;;;;0.00;0.00;;;15.90;99.90;;;;;;7404598;19;19921;-78
2023/05/24 12:53:50;;;;;;;0.00;0.00;;;16.00;99.90;;;;;;7402664;19;20783;-78
2023/05/24 12:56:20;;;;;;;0.57;0.10;;;15.70;99.90;;;;;;7400466;19;20013;-79
2023/05/24 12:58:54;;;;;;;0.00;0.00;;;15.80;99.90;;;;;;7401536;19;19929;-78
2023/05/24 13:01:24;;;;;;;0.00;0.00;;;15.80;99.90;;;;;;7401962;19;19919;-78
2023/05/24 13:03:53;;;;;;;0.00;0.00;;;15.90;99.90;;;;;;7402265;19;20209;-78
2023/05/24 13:06:23;;;;;;;0.00;0.00;;;15.90;99.90;;;;;;7400233;19;19922;-78
2023/05/24 13:08:52;;;;;;;3.72;0.43;;;15.90;99.90;;;;;;7402700;19;19927;-79
2023/05/24 13:11:23;;;;;;;0.00;0.00;;;15.90;99.90;;;;;;7403194;19;19927;-79